Time;durP1;ratioP1;P1;durP2;ratioP2;P2;SDS_P1;SDS_P2;PMS_P1;PMS_P2;Temp;Humidity;BMP_temperature;BMP_pressure;BME280_temperature;BME280_humidity;BME280_pressure;Samples;Min_cycle;Max_cycle;Signal;HPM_P1;HPM_P2
2021/05/30 00:01:31;;;;;;;17.50;15.73;;;9.20;99.90;;;;;;5036928;28;20517;-46
2021/05/30 00:04:00;;;;;;;17.67;15.73;;;9.20;99.90;;;;;;5027619;28;20928;-48
2021/05/30 00:06:29;;;;;;;17.30;15.47;;;9.10;99.90;;;;;;5032082;28;20581;-48
2021/05/30 00:08:56;;;;;;;20.33;17.67;;;9.00;99.90;;;;;;5036840;28;20488;-45
2021/05/30 00:11:22;;;;;;;17.63;15.70;;;9.00;99.90;;;;;;5036782;28;20568;-49
2021/05/30 00:13:50;;;;;;;18.40;16.50;;;9.00;99.90;;;;;;5036788;28;20459;-46
2021/05/30 00:16:17;;;;;;;18.53;16.83;;;9.00;99.90;;;;;;5036912;28;20929;-48
2021/05/30 00:18:45;;;;;;;21.83;17.03;;;8.90;99.90;;;;;;5037180;28;20462;-49
2021/05/30 00:21:12;;;;;;;17.23;15.23;;;8.90;99.90;;;;;;5036183;28;20482;-47
2021/05/30 00:23:39;;;;;;;16.83;15.13;;;8.80;99.90;;;;;;5037354;28;20494;-52
2021/05/30 00:26:06;;;;;;;18.10;16.17;;;8.90;99.90;;;;;;5035625;28;20463;-49
2021/05/30 00:28:32;;;;;;;18.40;16.50;;;8.80;99.90;;;;;;5036928;28;20459;-52
2021/05/30 00:30:59;;;;;;;20.30;18.23;;;8.80;99.90;;;;;;5036972;28;20487;-47
2021/05/30 00:33:25;;;;;;;18.53;16.63;;;8.70;99.90;;;;;;5036814;28;20459;-51
2021/05/30 00:35:52;;;;;;;17.53;15.70;;;8.60;99.90;;;;;;5037082;28;20463;-47
2021/05/30 00:38:18;;;;;;;17.67;15.87;;;8.60;99.90;;;;;;5036473;28;20768;-50
2021/05/30 00:40:46;;;;;;;18.90;16.90;;;8.50;99.90;;;;;;5036809;28;20517;-50
2021/05/30 00:43:15;;;;;;;18.47;16.17;;;8.50;99.90;;;;;;5036697;28;20463;-46
2021/05/30 00:45:46;;;;;;;19.10;17.10;;;8.60;99.90;;;;;;5037036;28;20895;-48
2021/05/30 00:48:12;;;;;;;17.93;16.07;;;8.50;99.90;;;;;;5036615;28;20585;-46
2021/05/30 00:50:39;;;;;;;19.27;17.20;;;8.60;99.90;;;;;;5036740;28;20502;-49
2021/05/30 00:53:08;;;;;;;19.80;17.67;;;8.50;99.90;;;;;;5036681;28;20437;-49
2021/05/30 00:55:36;;;;;;;20.07;16.77;;;8.50;99.90;;;;;;5037248;28;20463;-51
2021/05/30 00:58:03;;;;;;;18.33;16.47;;;8.50;99.90;;;;;;5036477;28;20462;-49
2021/05/30 01:00:30;;;;;;;17.90;16.10;;;8.40;99.90;;;;;;5036714;28;20808;-46
2021/05/30 01:02:57;;;;;;;22.23;16.90;;;8.40;99.90;;;;;;5036718;28;20467;-49
2021/05/30 01:05:24;;;;;;;20.33;17.97;;;8.30;99.90;;;;;;5028595;28;20471;-48
2021/05/30 01:07:50;;;;;;;19.23;17.13;;;8.30;99.90;;;;;;5031648;28;20528;-49
2021/05/30 01:10:20;;;;;;;20.37;17.90;;;8.30;99.90;;;;;;5035297;28;20474;-50
2021/05/30 01:12:48;;;;;;;19.77;17.67;;;8.30;99.90;;;;;;5036109;28;20438;-49
2021/05/30 01:15:16;;;;;;;20.20;18.00;;;8.20;99.90;;;;;;5036189;28;20773;-51
2021/05/30 01:17:47;;;;;;;17.80;15.90;;;8.20;99.90;;;;;;5035428;28;20437;-50
2021/05/30 01:20:16;;;;;;;22.10;19.80;;;8.20;99.90;;;;;;5033130;28;20554;-48
2021/05/30 01:22:44;;;;;;;19.90;17.13;;;8.10;99.90;;;;;;5036434;28;20885;-47
2021/05/30 01:25:13;;;;;;;19.30;16.47;;;8.10;99.90;;;;;;5039705;28;20821;-46
2021/05/30 01:27:40;;;;;;;18.47;16.53;;;8.00;99.90;;;;;;5040102;28;20742;-47
2021/05/30 01:30:15;;;;;;;24.73;17.50;;;8.00;99.90;;;;;;5040241;28;20459;-54
2021/05/30 01:32:42;;;;;;;18.93;16.30;;;8.00;99.90;;;;;;5039627;28;20501;-47
2021/05/30 01:35:11;;;;;;;18.43;16.53;;;8.00;99.90;;;;;;5040072;28;20471;-48
2021/05/30 01:37:37;;;;;;;18.73;16.80;;;8.00;99.90;;;;;;5040196;28;20474;-49
2021/05/30 01:40:06;;;;;;;18.13;16.40;;;7.90;99.90;;;;;;5039634;28;20784;-48
2021/05/30 01:42:33;;;;;;;21.10;18.10;;;7.80;99.90;;;;;;5039688;28;20463;-53
2021/05/30 01:45:00;;;;;;;20.17;17.03;;;7.80;99.90;;;;;;5039954;28;20478;-46
2021/05/30 01:47:26;;;;;;;19.13;17.07;;;7.70;99.90;;;;;;5040118;28;20880;-46
2021/05/30 01:49:53;;;;;;;19.47;17.37;;;7.70;99.90;;;;;;5039383;28;20907;-48
2021/05/30 01:52:20;;;;;;;18.40;16.50;;;7.70;99.90;;;;;;5039266;28;20494;-51
2021/05/30 01:54:49;;;;;;;20.00;17.80;;;7.70;99.90;;;;;;5039334;28;20467;-46
2021/05/30 01:57:22;;;;;;;21.40;16.93;;;7.70;99.90;;;;;;5039716;28;20922;-48
2021/05/30 01:59:50;;;;;;;22.17;19.83;;;7.60;99.90;;;;;;5039214;28;20968;-49
2021/05/30 02:02:17;;;;;;;20.80;18.57;;;7.70;99.90;;;;;;5039749;28;20463;-46
2021/05/30 02:04:48;;;;;;;22.27;18.37;;;7.60;99.90;;;;;;5011074;28;20472;-52
2021/05/30 02:07:18;;;;;;;20.40;18.20;;;7.60;99.90;;;;;;5011814;28;20496;-49
2021/05/30 02:09:45;;;;;;;22.63;18.00;;;7.60;99.90;;;;;;5019040;28;20518;-52
2021/05/30 02:12:12;;;;;;;19.87;17.60;;;7.40;99.90;;;;;;5018971;28;20499;-48
2021/05/30 02:51:51;;;;;;;21.33;17.43;;;7.20;99.90;;;;;;4608483;23;20469;-53
2021/05/30 02:54:18;;;;;;;19.73;17.60;;;7.20;99.90;;;;;;5039255;28;20482;-50
2021/05/30 02:56:45;;;;;;;20.37;18.17;;;7.10;99.90;;;;;;5038558;28;20802;-48
2021/05/30 02:59:12;;;;;;;23.47;18.03;;;7.10;99.90;;;;;;5038294;28;20869;-49
2021/05/30 03:01:38;;;;;;;22.30;18.30;;;7.10;99.90;;;;;;5038119;28;20466;-47
2021/05/30 03:04:05;;;;;;;19.60;17.13;;;7.10;99.90;;;;;;5025732;28;20475;-51
2021/05/30 03:06:33;;;;;;;22.67;17.97;;;7.10;99.90;;;;;;5036513;28;20765;-50
2021/05/30 03:09:00;;;;;;;22.83;19.13;;;7.00;99.90;;;;;;5037197;28;20477;-47
2021/05/30 03:11:27;;;;;;;23.17;18.87;;;6.90;99.90;;;;;;5038568;28;20495;-47
2021/05/30 03:13:54;;;;;;;21.10;18.57;;;7.00;99.90;;;;;;5037438;28;20806;-50
2021/05/30 03:16:21;;;;;;;23.40;17.80;;;7.00;99.90;;;;;;5037753;28;20467;-50
2021/05/30 03:18:48;;;;;;;23.50;18.73;;;7.00;99.90;;;;;;5038308;28;20499;-51
2021/05/30 03:21:15;;;;;;;20.10;17.93;;;7.00;99.90;;;;;;5037494;28;20458;-49
2021/05/30 03:23:42;;;;;;;21.80;17.20;;;7.00;99.90;;;;;;5038501;28;20490;-47
2021/05/30 03:26:09;;;;;;;19.23;17.17;;;6.90;99.90;;;;;;5037699;28;20442;-51
2021/05/30 03:28:37;;;;;;;22.50;19.03;;;6.90;99.90;;;;;;5038040;28;20463;-51
2021/05/30 03:31:03;;;;;;;21.97;16.80;;;6.90;99.90;;;;;;5037395;28;20494;-50
2021/05/30 03:33:30;;;;;;;21.40;17.30;;;6.80;99.90;;;;;;5037737;28;20438;-49
2021/05/30 03:36:00;;;;;;;19.23;16.90;;;6.80;99.90;;;;;;5037513;28;20438;-49
2021/05/30 03:38:28;;;;;;;18.67;16.70;;;6.80;99.90;;;;;;5037205;28;20458;-50
2021/05/30 03:41:01;;;;;;;25.30;19.10;;;6.70;99.90;;;;;;5037855;28;20465;-49
2021/05/30 03:43:29;;;;;;;19.90;17.63;;;6.80;99.90;;;;;;5037735;28;20858;-50
2021/05/30 03:45:56;;;;;;;23.57;17.73;;;6.80;99.90;;;;;;5036802;28;20521;-47
2021/05/30 03:48:23;;;;;;;19.70;17.30;;;6.70;99.90;;;;;;5037839;28;20463;-51
2021/05/30 03:50:50;;;;;;;20.77;18.10;;;6.80;99.90;;;;;;5037324;28;20491;-51
2021/05/30 03:53:17;;;;;;;22.87;18.40;;;6.80;99.90;;;;;;5037639;28;20467;-50
2021/05/30 03:55:44;;;;;;;24.13;18.97;;;6.80;99.90;;;;;;5037244;28;20470;-52
2021/05/30 03:58:11;;;;;;;20.80;18.30;;;6.80;99.90;;;;;;5037675;28;20438;-50
2021/05/30 04:00:39;;;;;;;22.70;19.17;;;6.80;99.90;;;;;;5037349;28;20467;-48
2021/05/30 04:03:06;;;;;;;25.00;19.53;;;6.90;99.90;;;;;;5029966;28;20452;-53
2021/05/30 04:05:32;;;;;;;20.30;17.30;;;6.90;99.90;;;;;;5033847;28;20812;-50
2021/05/30 04:07:59;;;;;;;20.70;18.03;;;6.90;99.90;;;;;;5036759;28;20455;-56
2021/05/30 04:10:26;;;;;;;19.03;17.00;;;7.00;99.90;;;;;;5037483;28;20899;-51
2021/05/30 04:12:52;;;;;;;21.17;17.70;;;7.00;99.90;;;;;;5036707;28;20494;-56
2021/05/30 04:15:19;;;;;;;23.23;18.90;;;7.10;99.90;;;;;;5036956;28;20474;-50
2021/05/30 04:17:47;;;;;;;20.80;17.60;;;7.10;99.90;;;;;;5037279;28;20463;-51
2021/05/30 04:20:17;;;;;;;23.47;19.10;;;7.10;99.90;;;;;;5037334;28;20470;-49
2021/05/30 04:22:44;;;;;;;24.33;18.87;;;7.20;99.90;;;;;;5036858;28;20494;-55
2021/05/30 04:25:12;;;;;;;21.93;18.47;;;7.30;99.90;;;;;;5037071;28;20550;-50
2021/05/30 04:27:42;;;;;;;18.67;16.63;;;7.30;99.90;;;;;;5037446;28;20458;-51
2021/05/30 04:30:11;;;;;;;20.47;16.57;;;7.40;99.90;;;;;;5037130;28;20471;-48
2021/05/30 04:32:38;;;;;;;23.07;17.13;;;7.40;99.90;;;;;;5036797;28;20495;-51
2021/05/30 04:35:07;;;;;;;21.53;17.70;;;7.50;99.90;;;;;;5036723;28;20459;-54
2021/05/30 04:37:34;;;;;;;24.20;19.30;;;7.50;99.90;;;;;;5036738;28;20466;-53
2021/05/30 04:40:01;;;;;;;25.63;19.40;;;7.60;99.90;;;;;;5036725;28;20466;-51
2021/05/30 04:42:28;;;;;;;23.77;18.33;;;7.60;99.90;;;;;;5036848;28;20463;-51
2021/05/30 04:44:54;;;;;;;23.10;18.80;;;7.60;99.90;;;;;;5037247;28;20470;-53
2021/05/30 04:47:21;;;;;;;20.53;18.43;;;7.70;99.90;;;;;;5036842;28;20463;-52
2021/05/30 04:49:47;;;;;;;23.23;20.03;;;7.70;99.90;;;;;;5036883;28;20483;-50
2021/05/30 04:52:15;;;;;;;22.00;19.27;;;7.80;99.90;;;;;;5036947;28;20784;-55
2021/05/30 04:54:41;;;;;;;26.13;22.23;;;7.90;99.90;;;;;;5037022;28;20467;-56
2021/05/30 04:57:08;;;;;;;24.37;20.20;;;8.00;99.90;;;;;;5037478;28;20463;-53
2021/05/30 04:59:35;;;;;;;22.77;20.30;;;8.00;99.90;;;;;;5040478;28;20470;-58
2021/05/30 05:02:01;;;;;;;25.17;21.47;;;8.10;99.90;;;;;;5040450;28;20463;-54
2021/05/30 05:04:28;;;;;;;24.87;20.13;;;8.20;99.90;;;;;;5027284;28;20472;-53
2021/05/30 05:06:54;;;;;;;24.90;22.17;;;8.30;99.90;;;;;;5039549;28;20871;-49
2021/05/30 05:09:22;;;;;;;30.00;22.20;;;8.40;99.90;;;;;;5039777;28;20459;-57
2021/05/30 05:11:48;;;;;;;26.77;21.40;;;8.50;99.90;;;;;;5040408;28;20469;-50
2021/05/30 05:14:15;;;;;;;26.30;21.50;;;8.60;99.90;;;;;;5039647;28;20465;-57
2021/05/30 05:16:41;;;;;;;33.73;20.73;;;8.70;99.90;;;;;;5040494;28;20470;-53
2021/05/30 05:19:08;;;;;;;27.67;21.80;;;8.80;99.90;;;;;;5039922;28;20521;-57
2021/05/30 05:21:34;;;;;;;23.33;19.90;;;8.90;99.90;;;;;;5039950;28;20454;-50
2021/05/30 05:24:01;;;;;;;25.37;20.20;;;9.10;99.90;;;;;;5039751;28;20467;-56
2021/05/30 05:26:31;;;;;;;26.13;21.40;;;9.20;99.90;;;;;;5040370;28;20768;-56
2021/05/30 05:28:57;;;;;;;24.90;21.63;;;9.30;99.90;;;;;;5040057;28;20490;-55
2021/05/30 05:31:24;;;;;;;24.30;20.73;;;9.40;99.90;;;;;;5039905;28;20552;-57
2021/05/30 05:33:50;;;;;;;24.80;21.27;;;9.60;99.90;;;;;;5039814;28;20545;-57
2021/05/30 05:36:17;;;;;;;27.13;20.70;;;9.70;99.90;;;;;;5040055;28;20463;-58
2021/05/30 05:38:44;;;;;;;23.33;19.57;;;9.90;99.90;;;;;;5039506;28;20816;-58
2021/05/30 05:41:13;;;;;;;24.17;18.97;;;10.00;99.90;;;;;;5040023;28;20485;-56
2021/05/30 05:43:40;;;;;;;20.40;18.30;;;10.20;99.90;;;;;;5039676;28;20774;-57
2021/05/30 05:46:07;;;;;;;19.70;17.57;;;10.60;99.90;;;;;;5039818;28;20892;-54
2021/05/30 05:48:34;;;;;;;18.17;16.27;;;10.80;99.90;;;;;;5039604;28;20469;-57
2021/05/30 05:51:01;;;;;;;20.03;17.90;;;11.10;99.90;;;;;;5040899;28;20907;-58
2021/05/30 05:53:28;;;;;;;21.30;16.47;;;11.30;99.90;;;;;;5039660;28;20459;-53
2021/05/30 05:55:54;;;;;;;18.83;16.00;;;11.50;99.90;;;;;;5040116;28;20471;-53
2021/05/30 05:58:21;;;;;;;18.23;16.13;;;11.80;99.90;;;;;;5039768;28;20474;-55
2021/05/30 06:00:48;;;;;;;17.13;15.43;;;12.00;99.90;;;;;;5039237;28;20463;-48
2021/05/30 06:03:15;;;;;;;16.60;14.97;;;12.30;99.90;;;;;;5032744;28;20475;-51
2021/05/30 06:05:41;;;;;;;15.33;13.77;;;12.60;99.90;;;;;;5036574;28;20478;-53
2021/05/30 06:08:08;;;;;;;14.03;12.63;;;12.90;99.90;;;;;;5038614;28;20513;-53
2021/05/30 06:10:35;;;;;;;16.07;14.40;;;13.10;99.90;;;;;;5038701;28;20463;-55
2021/05/30 06:13:04;;;;;;;14.43;12.90;;;13.30;99.90;;;;;;5038880;28;20553;-49
2021/05/30 06:15:33;;;;;;;14.17;12.20;;;13.70;99.90;;;;;;5038861;28;20815;-48
2021/05/30 06:18:07;;;;;;;14.00;12.70;;;14.10;99.90;;;;;;5039458;28;20463;-45
2021/05/30 06:20:34;;;;;;;12.70;11.60;;;14.50;99.90;;;;;;5038840;28;20471;-49
2021/05/30 06:23:01;;;;;;;13.57;11.37;;;14.80;99.90;;;;;;5038627;28;20896;-50
2021/05/30 06:25:27;;;;;;;14.90;11.67;;;15.10;99.90;;;;;;5038977;28;20474;-53
2021/05/30 06:27:56;;;;;;;10.50;9.40;;;15.30;99.90;;;;;;5038922;28;20467;-53
2021/05/30 06:30:23;;;;;;;11.47;10.40;;;15.50;99.90;;;;;;5038733;28;20609;-47
2021/05/30 06:32:50;;;;;;;12.03;10.97;;;15.80;99.90;;;;;;5038938;28;20491;-44
2021/05/30 06:35:17;;;;;;;10.03;9.13;;;16.10;99.90;;;;;;5038952;28;20490;-47
2021/05/30 06:37:46;;;;;;;10.63;9.60;;;15.90;99.90;;;;;;5039032;28;20765;-45
2021/05/30 06:40:14;;;;;;;9.13;8.23;;;16.20;99.90;;;;;;5038431;28;20517;-46
2021/05/30 06:42:40;;;;;;;9.30;8.40;;;16.50;99.90;;;;;;5038948;28;20465;-47
2021/05/30 06:45:08;;;;;;;9.50;7.97;;;16.90;99.90;;;;;;5038333;28;20478;-51
2021/05/30 06:47:35;;;;;;;8.17;7.47;;;17.10;98.90;;;;;;5038599;28;20463;-51
2021/05/30 06:50:01;;;;;;;8.57;7.63;;;17.40;99.90;;;;;;5038691;28;20433;-48
2021/05/30 06:52:32;;;;;;;7.63;6.93;;;17.80;98.30;;;;;;5038352;28;20502;-50
2021/05/30 06:54:58;;;;;;;7.33;6.73;;;18.00;99.20;;;;;;5038454;28;21066;-54
2021/05/30 06:57:26;;;;;;;7.47;6.73;;;18.30;95.90;;;;;;5038653;28;20470;-48
2021/05/30 06:59:53;;;;;;;7.20;6.60;;;18.30;93.10;;;;;;5039582;28;20667;-52
2021/05/30 07:02:19;;;;;;;6.37;5.87;;;18.60;90.10;;;;;;5040445;28;20455;-48
2021/05/30 07:04:48;;;;;;;7.20;6.57;;;18.80;81.30;;;;;;5025777;28;20750;-48
2021/05/30 07:07:15;;;;;;;7.30;6.50;;;19.20;82.50;;;;;;5029271;28;20470;-51
2021/05/30 07:09:43;;;;;;;5.97;5.30;;;19.30;74.40;;;;;;5037774;28;20500;-53
2021/05/30 07:12:10;;;;;;;6.50;6.00;;;19.10;69.90;;;;;;5038604;28;20779;-52
2021/05/30 07:14:37;;;;;;;6.00;5.50;;;19.40;73.30;;;;;;5037374;28;20470;-55
2021/05/30 07:17:03;;;;;;;6.30;5.70;;;19.80;73.30;;;;;;5037639;28;20474;-55
2021/05/30 07:19:30;;;;;;;5.20;4.70;;;20.20;70.30;;;;;;5037659;28;20811;-54
2021/05/30 07:21:57;;;;;;;5.90;5.40;;;20.20;62.40;;;;;;5036817;28;20553;-52
2021/05/30 07:24:23;;;;;;;5.77;5.27;;;20.30;63.10;;;;;;5038154;28;21006;-51
2021/05/30 07:26:52;;;;;;;6.20;5.70;;;20.50;62.20;;;;;;5036484;28;20962;-51
2021/05/30 07:29:18;;;;;;;8.83;5.80;;;19.90;58.90;;;;;;5037719;28;20477;-53
2021/05/30 07:31:45;;;;;;;6.50;6.00;;;19.80;68.70;;;;;;5035717;28;20819;-46
2021/05/30 07:34:12;;;;;;;5.77;5.33;;;20.30;69.00;;;;;;5038173;28;20468;-48
2021/05/30 07:36:38;;;;;;;5.50;5.00;;;20.30;60.40;;;;;;5036940;28;20486;-48
2021/05/30 07:39:07;;;;;;;6.00;5.50;;;19.90;62.80;;;;;;5032368;28;20903;-52
2021/05/30 07:41:34;;;;;;;6.10;5.60;;;20.70;63.90;;;;;;5037460;28;20470;-52
2021/05/30 07:44:02;;;;;;;4.43;4.10;;;21.00;59.30;;;;;;5036196;28;20490;-49
2021/05/30 07:46:29;;;;;;;5.77;5.27;;;21.40;58.10;;;;;;5037646;28;20474;-51
2021/05/30 07:48:56;;;;;;;5.77;5.27;;;21.00;56.90;;;;;;5036792;28;20466;-51
2021/05/30 08:34:08;;;;;;;5.10;4.70;;;23.70;53.60;;;;;;5026784;28;20475;-52
2021/05/30 08:36:35;;;;;;;4.67;4.23;;;23.40;48.50;;;;;;5024687;28;20765;-53
2021/05/30 08:39:03;;;;;;;4.40;4.00;;;23.80;48.80;;;;;;5038237;28;20883;-52
2021/05/30 08:41:29;;;;;;;4.43;4.07;;;24.20;49.20;;;;;;5035070;28;20500;-51
2021/05/30 08:43:57;;;;;;;4.37;4.07;;;23.70;48.20;;;;;;5027815;28;20922;-52
2021/05/30 08:46:27;;;;;;;4.50;4.20;;;23.90;50.10;;;;;;5031349;28;20888;-54
2021/05/30 08:48:59;;;;;;;4.40;4.10;;;24.50;49.50;;;;;;5033920;28;20459;-49
2021/05/30 08:51:26;;;;;;;5.20;4.80;;;24.60;49.50;;;;;;5030836;28;20505;-52
2021/05/30 08:53:56;;;;;;;5.27;4.73;;;24.10;45.90;;;;;;5023537;28;20448;-55
2021/05/30 08:56:24;;;;;;;5.87;4.90;;;24.10;48.80;;;;;;5024153;28;20460;-54
2021/05/30 08:58:53;;;;;;;3.73;3.53;;;24.30;50.30;;;;;;5042980;28;20466;-53
2021/05/30 09:01:25;;;;;;;4.27;4.03;;;24.40;46.70;;;;;;5034260;28;20467;-56
2021/05/30 09:04:03;;;;;;;3.80;3.60;;;24.60;44.80;;;;;;5031714;28;20477;-55
2021/05/30 09:06:31;;;;;;;5.83;4.60;;;25.00;45.50;;;;;;5030619;28;20529;-50
2021/05/30 09:09:01;;;;;;;5.83;5.43;;;25.30;45.90;;;;;;5030555;28;20467;-53
2021/05/30 09:11:43;;;;;;;5.07;4.50;;;25.50;43.90;;;;;;5024003;28;20485;-54
2021/05/30 09:14:14;;;;;;;4.87;4.47;;;25.20;44.90;;;;;;5037704;28;20485;-52
2021/05/30 09:16:59;;;;;;;4.57;4.27;;;24.10;42.90;;;;;;5033762;28;20494;-54
2021/05/30 09:19:37;;;;;;;4.50;4.20;;;23.30;44.90;;;;;;5031443;28;20502;-49
2021/05/30 09:22:33;;;;;;;8.23;4.17;;;24.30;43.70;;;;;;5033025;28;20794;-53
2021/05/30 09:25:24;;;;;;;4.93;4.57;;;24.80;46.80;;;;;;5023001;28;20769;-49
2021/05/30 09:28:00;;;;;;;4.67;4.37;;;25.20;44.90;;;;;;5032793;28;20476;-49
2021/05/30 09:30:42;;;;;;;4.63;4.33;;;25.60;43.90;;;;;;5030027;28;20491;-52
2021/05/30 10:14:12;;;;;;;5.57;5.27;;;25.90;41.50;;;;;;5016788;28;20476;-55
2021/05/30 10:16:43;;;;;;;4.73;4.33;;;25.90;41.50;;;;;;5010378;28;20884;-55
2021/05/30 10:19:17;;;;;;;5.90;5.57;;;25.60;43.20;;;;;;5013179;28;20461;-50
2021/05/30 10:21:49;;;;;;;5.10;4.80;;;26.30;40.30;;;;;;5006548;28;20500;-53
2021/05/30 10:24:17;;;;;;;4.60;4.30;;;26.20;41.30;;;;;;5007719;28;20473;-54
2021/05/30 10:26:44;;;;;;;4.93;4.53;;;25.60;41.20;;;;;;5001588;28;20461;-47
2021/05/30 10:29:14;;;;;;;5.13;4.70;;;25.70;43.20;;;;;;5014552;28;20468;-51
2021/05/30 10:31:43;;;;;;;5.03;4.73;;;26.20;40.70;;;;;;5018535;28;20449;-49
2021/05/30 10:34:16;;;;;;;4.90;4.60;;;26.30;41.10;;;;;;5009131;28;20496;-54
2021/05/30 10:36:47;;;;;;;4.50;4.20;;;26.10;40.20;;;;;;5010764;28;20986;-52
2021/05/30 10:39:34;;;;;;;4.77;4.50;;;26.50;40.70;;;;;;5018174;28;20761;-52
2021/05/30 10:42:16;;;;;;;5.40;5.00;;;24.90;40.60;;;;;;5018104;28;20487;-54
2021/05/30 10:45:06;;;;;;;4.53;4.27;;;23.80;42.00;;;;;;5017747;28;20468;-49
2021/05/30 10:48:18;;;;;;;4.50;4.20;;;24.50;42.90;;;;;;5011959;28;20476;-52
2021/05/30 10:50:56;;;;;;;5.67;5.17;;;23.60;40.60;;;;;;5017914;28;20466;-52
2021/05/30 11:32:28;;;;;;;4.43;4.03;;;25.60;41.10;;;;;;4996326;28;20496;-56
2021/05/30 11:34:54;;;;;;;4.63;4.23;;;26.20;40.60;;;;;;4998924;28;20496;-54
2021/05/30 11:37:21;;;;;;;4.43;4.13;;;26.60;39.50;;;;;;4997902;28;20465;-53
2021/05/30 11:39:47;;;;;;;4.33;4.03;;;26.60;39.20;;;;;;4997554;28;20754;-54
2021/05/30 11:42:14;;;;;;;5.97;4.50;;;26.30;40.30;;;;;;4997055;28;20804;-50
2021/05/30 11:44:40;;;;;;;4.17;3.87;;;26.60;41.10;;;;;;4978887;28;20458;-47
2021/05/30 11:47:08;;;;;;;4.43;4.23;;;27.40;40.30;;;;;;4985649;28;20785;-46
2021/05/30 11:49:38;;;;;;;5.10;4.80;;;27.40;38.90;;;;;;4998123;28;20476;-51
2021/05/30 11:52:08;;;;;;;4.77;4.37;;;27.40;38.50;;;;;;4995940;28;20507;-53
2021/05/30 11:54:46;;;;;;;3.80;3.60;;;27.50;38.10;;;;;;4997691;28;20461;-56
2021/05/30 11:57:17;;;;;;;4.00;3.80;;;25.90;39.10;;;;;;4988139;28;20470;-52
2021/05/30 11:59:52;;;;;;;4.60;4.20;;;25.50;39.70;;;;;;4993281;28;20476;-54
2021/05/30 12:02:28;;;;;;;4.37;3.97;;;26.10;40.10;;;;;;4978034;28;20497;-54
2021/05/30 12:04:59;;;;;;;5.27;4.77;;;25.90;41.60;;;;;;4991810;28;20473;-56
2021/05/30 12:07:27;;;;;;;4.33;3.97;;;26.20;39.10;;;;;;4996445;28;20465;-53
2021/05/30 12:09:58;;;;;;;4.10;3.90;;;26.70;39.30;;;;;;4997434;28;20465;-53
2021/05/30 12:12:36;;;;;;;3.87;3.67;;;27.20;38.40;;;;;;4998311;28;20449;-51
2021/05/30 12:15:12;;;;;;;4.50;4.10;;;27.20;37.80;;;;;;4998282;28;20805;-52
2021/05/30 12:17:41;;;;;;;4.43;4.13;;;26.90;39.10;;;;;;4997618;28;20472;-46
2021/05/30 12:20:18;;;;;;;4.37;4.10;;;26.80;38.90;;;;;;4998169;28;20472;-56
2021/05/30 12:22:45;;;;;;;4.43;4.13;;;26.50;38.90;;;;;;4997775;28;20520;-52
2021/05/30 12:25:12;;;;;;;4.23;3.93;;;26.40;41.10;;;;;;4997199;28;20469;-48
2021/05/30 12:27:42;;;;;;;5.47;4.80;;;26.50;38.40;;;;;;4997845;28;20490;-50
2021/05/30 12:30:11;;;;;;;4.77;4.47;;;26.70;41.90;;;;;;4998919;28;20902;-50
2021/05/30 12:32:38;;;;;;;4.03;3.73;;;26.80;38.70;;;;;;5017457;28;20563;-51
2021/05/30 12:35:06;;;;;;;5.13;4.70;;;27.20;39.30;;;;;;5016999;28;20464;-52
2021/05/30 12:37:44;;;;;;;4.90;4.60;;;27.20;39.50;;;;;;5017085;28;20467;-46
2021/05/30 12:40:12;;;;;;;4.70;4.40;;;27.50;39.00;;;;;;5017684;28;20464;-45
2021/05/30 12:42:40;;;;;;;4.87;4.50;;;28.00;37.90;;;;;;5017418;28;20492;-45
2021/05/30 12:45:14;;;;;;;5.10;4.70;;;27.80;38.30;;;;;;5016988;28;20449;-44
2021/05/30 12:47:42;;;;;;;4.27;4.00;;;27.20;38.60;;;;;;5016768;28;20507;-48
2021/05/30 12:50:10;;;;;;;4.83;4.53;;;27.60;37.60;;;;;;5017909;28;20943;-46
2021/05/30 12:52:47;;;;;;;4.50;4.20;;;25.90;39.30;;;;;;5016116;28;20904;-50
2021/05/30 12:55:15;;;;;;;4.93;4.63;;;25.70;41.10;;;;;;5015230;28;20471;-46
2021/05/30 12:57:43;;;;;;;5.03;4.73;;;26.20;40.90;;;;;;5015990;28;20475;-49
2021/05/30 13:00:11;;;;;;;4.83;4.53;;;26.80;41.20;;;;;;5016212;28;20478;-49
2021/05/30 13:02:40;;;;;;;4.20;4.00;;;27.30;39.20;;;;;;5009976;28;21073;-53
2021/05/30 13:05:12;;;;;;;4.50;4.20;;;27.50;39.70;;;;;;5003534;28;20792;-45
2021/05/30 13:07:38;;;;;;;4.87;4.57;;;27.20;40.00;;;;;;5016222;28;20495;-47
2021/05/30 13:10:08;;;;;;;4.50;4.20;;;27.30;38.10;;;;;;5016512;28;20915;-46
2021/05/30 13:12:38;;;;;;;4.43;4.13;;;26.50;39.50;;;;;;5017214;28;20507;-53
2021/05/30 13:15:23;;;;;;;4.60;4.30;;;27.10;39.40;;;;;;5016957;28;20468;-53
2021/05/30 13:18:12;;;;;;;4.40;4.10;;;26.80;39.30;;;;;;5017115;28;20472;-54
2021/05/30 13:20:48;;;;;;;5.33;4.93;;;27.10;39.00;;;;;;5019998;28;20468;-49
2021/05/30 13:23:19;;;;;;;4.30;4.00;;;26.60;39.10;;;;;;5020127;28;20505;-48
2021/05/30 13:25:50;;;;;;;4.80;4.50;;;26.40;39.00;;;;;;5019970;28;20463;-46
2021/05/30 13:28:24;;;;;;;5.07;4.77;;;26.30;39.60;;;;;;5020949;28;20792;-44
2021/05/30 13:30:56;;;;;;;4.90;4.50;;;26.60;39.30;;;;;;5020894;28;20521;-48
2021/05/30 13:33:24;;;;;;;9.10;4.43;;;26.90;40.60;;;;;;5022329;28;20889;-52
2021/05/30 13:35:52;;;;;;;4.17;3.87;;;26.80;38.60;;;;;;5020258;28;20464;-53
2021/05/30 13:38:18;;;;;;;4.00;3.80;;;26.80;38.40;;;;;;5020035;28;20495;-53
2021/05/30 13:40:48;;;;;;;4.47;4.13;;;26.30;38.70;;;;;;5019291;28;20463;-56
2021/05/30 13:43:15;;;;;;;5.20;4.80;;;26.40;40.80;;;;;;5019749;28;20495;-56
2021/05/30 13:45:43;;;;;;;4.80;4.50;;;26.70;39.00;;;;;;5019651;28;20526;-56
2021/05/30 13:48:15;;;;;;;4.13;3.83;;;26.50;39.20;;;;;;5019952;28;20809;-54
2021/05/30 13:50:47;;;;;;;3.90;3.70;;;26.20;39.50;;;;;;5019571;28;20474;-47
2021/05/30 13:53:13;;;;;;;4.80;4.47;;;26.00;40.60;;;;;;5019493;28;20464;-52
2021/05/30 13:55:43;;;;;;;4.70;4.33;;;26.60;40.00;;;;;;5006302;28;20465;-56
2021/05/30 13:58:20;;;;;;;4.60;4.30;;;26.10;39.00;;;;;;4988393;28;20760;-52
2021/05/30 14:00:47;;;;;;;4.77;4.23;;;25.90;39.40;;;;;;4981409;28;20468;-46
2021/05/30 14:03:13;;;;;;;4.47;4.10;;;26.30;40.00;;;;;;4982376;28;20492;-53
2021/05/30 14:05:48;;;;;;;4.63;4.23;;;26.40;39.40;;;;;;4996542;28;20535;-47
2021/05/30 14:08:16;;;;;;;4.40;4.10;;;26.20;39.30;;;;;;4999576;28;20464;-48
2021/05/30 14:10:52;;;;;;;5.07;4.67;;;25.90;39.50;;;;;;4999543;28;20536;-56
2021/05/30 14:13:19;;;;;;;5.40;4.90;;;26.10;39.10;;;;;;4999556;28;20789;-50
2021/05/30 14:15:48;;;;;;;4.87;4.47;;;26.20;39.50;;;;;;4998938;28;20908;-47
2021/05/30 14:18:17;;;;;;;5.10;4.70;;;26.40;39.00;;;;;;4999590;28;20472;-51
2021/05/30 14:20:44;;;;;;;4.47;4.17;;;26.50;39.10;;;;;;4990327;28;20481;-51
2021/05/30 14:23:10;;;;;;;4.30;4.00;;;25.90;39.50;;;;;;4983151;28;20501;-46
2021/05/30 14:25:37;;;;;;;3.87;3.57;;;25.90;38.60;;;;;;5018933;28;20468;-50
2021/05/30 14:28:05;;;;;;;4.13;3.87;;;25.50;39.00;;;;;;5019370;28;20468;-49
2021/05/30 14:30:35;;;;;;;4.10;3.90;;;25.70;39.50;;;;;;5017689;28;20495;-51
2021/05/30 14:33:02;;;;;;;4.60;4.20;;;25.40;38.80;;;;;;5018842;28;20460;-51
2021/05/30 14:35:29;;;;;;;4.43;4.13;;;25.30;39.20;;;;;;5018264;28;20509;-48
2021/05/30 14:37:55;;;;;;;4.00;3.80;;;25.00;39.30;;;;;;4997664;28;20461;-54
2021/05/30 14:40:23;;;;;;;4.90;4.60;;;24.90;39.60;;;;;;4990028;28;20461;-49
2021/05/30 14:42:49;;;;;;;4.37;4.07;;;24.90;40.10;;;;;;4979577;28;20497;-55
2021/05/30 14:45:16;;;;;;;4.73;3.70;;;25.20;39.60;;;;;;4979522;28;20950;-52
2021/05/30 14:47:43;;;;;;;4.73;3.90;;;24.90;39.60;;;;;;4979673;28;20477;-51
2021/05/30 14:50:14;;;;;;;5.13;4.67;;;25.30;39.50;;;;;;4994109;28;20904;-52
2021/05/30 14:52:44;;;;;;;6.00;4.47;;;25.40;39.60;;;;;;4997860;28;20453;-53
2021/05/30 14:55:12;;;;;;;4.10;3.90;;;25.20;39.90;;;;;;4998707;28;20464;-55
2021/05/30 14:57:39;;;;;;;5.10;4.70;;;25.30;40.10;;;;;;4998358;28;20779;-51
2021/05/30 15:00:07;;;;;;;4.43;4.07;;;24.90;40.40;;;;;;4996449;28;20472;-48
2021/05/30 15:40:41;;;;;;;4.60;4.30;;;24.30;40.80;;;;;;4824591;22;20849;-47
2021/05/30 15:43:08;;;;;;;5.60;5.20;;;23.90;40.60;;;;;;5016103;28;20488;-50
2021/05/30 15:45:35;;;;;;;5.10;4.50;;;24.10;41.50;;;;;;5014679;28;20709;-50
2021/05/30 15:48:02;;;;;;;4.90;4.60;;;24.20;41.80;;;;;;5014376;28;20467;-50
2021/05/30 15:50:29;;;;;;;4.97;4.60;;;24.00;42.10;;;;;;5016901;28;20468;-53
2021/05/30 15:52:58;;;;;;;5.27;4.70;;;23.70;42.40;;;;;;5017498;28;20764;-57
2021/05/30 15:55:24;;;;;;;5.50;5.00;;;23.80;43.20;;;;;;5017587;28;20467;-50
2021/05/30 15:57:54;;;;;;;5.17;4.87;;;23.90;42.40;;;;;;5016440;28;20472;-50
2021/05/30 16:00:24;;;;;;;5.60;5.10;;;23.70;42.50;;;;;;5017336;28;20751;-51
2021/05/30 16:02:50;;;;;;;5.47;5.07;;;23.60;42.90;;;;;;5009549;28;20499;-51
2021/05/30 16:05:17;;;;;;;5.30;4.80;;;23.80;43.70;;;;;;5009724;28;20784;-47
2021/05/30 16:42:38;;;;;;;4.80;4.50;;;23.00;44.20;;;;;;1488451;23;21965;-50